createdAt,value
2022-11-24T00:01:40.486Z,79.67
2022-11-24T00:04:02.451Z,79.65
2022-11-24T00:06:17.724Z,79.64
2022-11-24T00:08:30.998Z,79.71
2022-11-24T00:10:44.200Z,79.73
2022-11-24T00:12:57.384Z,79.77
2022-11-24T00:15:11.333Z,79.76
2022-11-24T00:17:24.578Z,79.81
2022-11-24T00:19:37.963Z,79.95
2022-11-24T00:21:51.201Z,79.95
2022-11-24T00:24:04.738Z,80.05
2022-11-24T00:26:19.089Z,79.93
2022-11-24T00:28:32.365Z,80.03
2022-11-24T00:30:45.732Z,80.01
2022-11-24T00:32:59.040Z,80.02
2022-11-24T00:35:13.144Z,80.08
2022-11-24T00:37:26.413Z,80.20
2022-11-24T00:39:39.687Z,80.31
2022-11-24T00:41:53.340Z,80.27
2022-11-24T00:44:07.110Z,80.46
2022-11-24T00:46:20.924Z,80.49
2022-11-24T00:48:34.617Z,80.61
2022-11-24T00:50:47.958Z,80.59
2022-11-24T00:53:01.255Z,80.78
2022-11-24T00:55:14.892Z,80.74
2022-11-24T00:57:28.124Z,80.93
2022-11-24T00:59:41.570Z,81.05
2022-11-24T01:01:54.904Z,80.92
2022-11-24T01:04:08.467Z,80.87
2022-11-24T01:06:23.555Z,80.97
2022-11-24T01:08:36.860Z,81.12
2022-11-24T01:10:50.227Z,81.29
2022-11-24T01:13:03.542Z,81.33
2022-11-24T01:15:20.882Z,81.51
2022-11-24T01:17:34.125Z,81.70
2022-11-24T01:19:48.334Z,81.74
2022-11-24T01:22:01.781Z,81.85
2022-11-24T01:24:15.914Z,81.80
2022-11-24T01:26:29.555Z,81.85
2022-11-24T01:28:47.012Z,81.84
2022-11-24T01:31:06.241Z,81.88
2022-11-24T01:33:19.869Z,81.93
2022-11-24T01:35:33.094Z,82.07
2022-11-24T01:37:46.520Z,81.93
2022-11-24T01:39:59.882Z,82.01
2022-11-24T01:42:13.839Z,82.13
2022-11-24T01:44:31.800Z,82.50
2022-11-24T01:46:49.495Z,82.65
2022-11-24T01:49:15.177Z,82.85
2022-11-24T01:51:32.210Z,82.83
2022-11-24T01:53:48.486Z,82.92
2022-11-24T01:56:02.544Z,83.15
2022-11-24T01:58:19.126Z,83.30
2022-11-24T02:00:32.758Z,83.23
2022-11-24T02:02:47.784Z,83.45
2022-11-24T02:05:04.121Z,83.34
2022-11-24T02:07:18.747Z,83.34
2022-11-24T02:09:36.943Z,83.30
2022-11-24T02:11:53.461Z,83.35
2022-11-24T02:14:07.618Z,83.71
2022-11-24T02:16:21.210Z,83.72
2022-11-24T02:18:34.548Z,83.82
2022-11-24T02:20:47.994Z,84.07
2022-11-24T02:23:07.227Z,84.03
2022-11-24T02:25:27.250Z,84.00
2022-11-24T02:27:40.561Z,83.98
2022-11-24T02:29:54.093Z,83.84
2022-11-24T02:32:10.849Z,83.72
2022-11-24T02:34:24.584Z,83.78
2022-11-24T02:36:38.216Z,83.66
2022-11-24T02:38:51.546Z,83.59
2022-11-24T02:41:09.166Z,83.73
2022-11-24T02:43:26.694Z,83.64
2022-11-24T02:45:39.947Z,83.80
2022-11-24T02:47:53.328Z,83.74
2022-11-24T02:50:06.818Z,83.81
2022-11-24T02:52:20.521Z,83.94
2022-11-24T02:54:34.086Z,84.18
2022-11-24T02:56:49.869Z,84.14
2022-11-24T02:59:03.330Z,84.07
2022-11-24T03:01:16.798Z,84.04
2022-11-24T03:03:30.591Z,84.03
2022-11-24T03:05:44.075Z,84.25
2022-11-24T03:07:57.574Z,84.29
2022-11-24T03:10:11.922Z,84.19
2022-11-24T03:12:25.288Z,84.18
2022-11-24T03:14:38.701Z,84.13
2022-11-24T03:16:52.588Z,84.19
2022-11-24T03:19:05.972Z,84.44
2022-11-24T03:21:19.358Z,84.51
2022-11-24T03:23:32.832Z,84.62
2022-11-24T03:25:46.301Z,84.47
2022-11-24T03:28:00.178Z,84.40
2022-11-24T03:30:15.406Z,84.46
2022-11-24T03:32:28.889Z,84.51
2022-11-24T03:34:42.336Z,84.35
2022-11-24T03:36:55.838Z,84.53
2022-11-24T03:39:09.382Z,84.61
2022-11-24T03:41:23.007Z,84.52
2022-11-24T03:43:41.957Z,84.36
2022-11-24T03:45:57.951Z,84.32
2022-11-24T03:48:12.320Z,84.34
2022-11-24T03:50:25.768Z,84.40
2022-11-24T03:52:39.077Z,84.36
2022-11-24T03:54:52.371Z,84.42
2022-11-24T03:57:05.678Z,84.34
2022-11-24T03:59:19.274Z,84.33
2022-11-24T04:01:33.168Z,84.47
2022-11-24T04:03:46.568Z,84.32
2022-11-24T04:05:59.960Z,84.36
2022-11-24T04:08:13.330Z,84.45
2022-11-24T04:10:26.795Z,84.55
2022-11-24T04:12:49.256Z,84.57
2022-11-24T04:15:02.557Z,84.68
2022-11-24T04:17:15.851Z,84.84
2022-11-24T04:19:29.063Z,84.70
2022-11-24T04:21:42.465Z,84.89
2022-11-24T04:23:55.777Z,84.84
2022-11-24T04:26:09.342Z,84.98
2022-11-24T04:28:22.611Z,85.15
2022-11-24T04:30:37.434Z,85.13
2022-11-24T04:32:51.222Z,85.24
2022-11-24T04:35:04.562Z,84.96
2022-11-24T04:37:17.860Z,85.00
2022-11-24T04:39:31.162Z,84.99
2022-11-24T04:41:44.465Z,85.12
2022-11-24T04:43:57.853Z,85.33
2022-11-24T04:46:13.856Z,85.59
2022-11-24T04:48:27.123Z,85.58
2022-11-24T04:50:41.036Z,85.44
2022-11-24T04:52:54.254Z,85.40
2022-11-24T04:55:07.608Z,85.25
2022-11-24T04:57:22.771Z,85.45
2022-11-24T04:59:37.176Z,85.57
2022-11-24T05:01:50.735Z,85.34
2022-11-24T05:04:04.439Z,85.34
2022-11-24T05:06:17.722Z,85.18
2022-11-24T05:08:30.952Z,85.22
2022-11-24T05:10:44.365Z,85.32
2022-11-24T05:13:02.486Z,85.50
2022-11-24T05:15:16.816Z,85.47
2022-11-24T05:17:31.849Z,85.55
2022-11-24T05:19:45.192Z,85.67
2022-11-24T05:21:58.607Z,85.71
2022-11-24T05:24:13.693Z,85.76
2022-11-24T05:26:27.272Z,85.90
2022-11-24T05:28:40.756Z,85.97
2022-11-24T05:30:54.248Z,85.97
2022-11-24T05:33:11.726Z,85.90
2022-11-24T05:35:25.567Z,85.96
2022-11-24T05:37:39.410Z,85.78
2022-11-24T05:39:52.828Z,85.81
2022-11-24T05:42:28.053Z,85.50
2022-11-24T05:44:41.432Z,85.50
2022-11-24T05:46:54.834Z,85.57
2022-11-24T05:49:08.176Z,85.54
2022-11-24T05:51:21.431Z,85.71
2022-11-24T05:53:34.783Z,85.77
2022-11-24T05:55:48.131Z,85.73
2022-11-24T05:58:06.623Z,85.77
2022-11-24T06:00:22.509Z,85.72
2022-11-24T06:02:38.320Z,85.76
2022-11-24T06:04:52.245Z,85.62
2022-11-24T06:07:05.703Z,85.76
2022-11-24T06:09:19.311Z,85.84
2022-11-24T06:11:32.811Z,85.80
2022-11-24T06:13:48.315Z,85.84
2022-11-24T06:16:05.176Z,85.95
2022-11-24T06:18:18.513Z,85.94
2022-11-24T06:20:33.095Z,85.94
2022-11-24T06:22:46.795Z,85.80
2022-11-24T06:25:00.248Z,85.80
2022-11-24T06:27:14.313Z,85.73
2022-11-24T06:29:27.753Z,85.92
2022-11-24T06:31:41.224Z,85.92
2022-11-24T06:33:54.868Z,85.99
2022-11-24T06:36:11.132Z,86.25
2022-11-24T06:38:24.732Z,86.32
2022-11-24T06:40:38.212Z,86.63
2022-11-24T06:42:56.015Z,86.58
2022-11-24T06:45:10.259Z,86.64
2022-11-24T06:47:23.812Z,86.91
2022-11-24T06:49:37.532Z,86.88
2022-11-24T06:51:50.972Z,86.90
2022-11-24T06:54:05.018Z,86.79
2022-11-24T06:56:22.265Z,86.76
2022-11-24T06:58:35.670Z,86.49
2022-11-24T07:00:50.030Z,86.36
2022-11-24T07:03:03.519Z,86.12
2022-11-24T07:05:17.133Z,85.82
2022-11-24T07:07:30.774Z,85.79
2022-11-24T07:09:44.108Z,85.87
2022-11-24T07:11:58.253Z,86.02
2022-11-24T07:14:11.903Z,85.96
2022-11-24T07:16:26.861Z,85.88
2022-11-24T07:18:41.330Z,86.02
2022-11-24T07:20:54.695Z,85.92
2022-11-24T07:23:08.198Z,85.93
2022-11-24T07:25:21.964Z,85.71
2022-11-24T07:27:35.590Z,85.59
2022-11-24T07:29:48.977Z,85.39
2022-11-24T07:32:05.506Z,85.27
2022-11-24T07:34:19.149Z,85.00
2022-11-24T07:36:32.476Z,84.69
2022-11-24T07:38:45.662Z,84.17
2022-11-24T07:41:02.398Z,83.69
2022-11-24T07:43:19.989Z,83.46
2022-11-24T07:45:34.512Z,83.16
2022-11-24T07:47:48.096Z,83.10
2022-11-24T07:50:01.446Z,83.10
2022-11-24T07:52:14.929Z,83.28
2022-11-24T07:54:28.179Z,83.62
2022-11-24T07:56:41.563Z,83.41
2022-11-24T07:58:55.081Z,83.41
2022-11-24T08:01:15.666Z,83.17
2022-11-24T08:03:29.505Z,82.78
2022-11-24T08:06:07.931Z,82.55
2022-11-24T08:08:16.113Z,82.49
2022-11-24T08:10:29.459Z,82.43
2022-11-24T08:12:43.846Z,82.24
2022-11-24T08:14:57.786Z,82.14
2022-11-24T08:17:11.077Z,81.92
2022-11-24T08:19:25.068Z,81.74
2022-11-24T08:21:38.395Z,81.27
2022-11-24T08:23:51.664Z,81.14
2022-11-24T08:26:06.787Z,80.92
2022-11-24T08:28:20.001Z,80.53
2022-11-24T08:30:33.726Z,80.05
2022-11-24T08:32:46.872Z,79.83
2022-11-24T08:35:13.492Z,79.71
2022-11-24T08:37:28.907Z,79.54
2022-11-24T08:39:42.073Z,79.63
2022-11-24T08:41:55.499Z,79.74
2022-11-24T08:44:09.612Z,79.70
2022-11-24T08:46:23.370Z,79.66
2022-11-24T08:48:37.178Z,79.45
2022-11-24T08:50:50.574Z,79.40
2022-11-24T08:53:03.901Z,79.15
2022-11-24T08:55:17.557Z,79.00
2022-11-24T08:57:30.787Z,78.65
2022-11-24T08:59:44.145Z,78.31
2022-11-24T09:01:57.442Z,78.25
2022-11-24T09:04:11.033Z,78.35
2022-11-24T09:06:26.928Z,78.51
2022-11-24T09:08:40.446Z,78.28
2022-11-24T09:10:53.806Z,78.13
2022-11-24T09:13:07.377Z,78.11
2022-11-24T09:15:21.666Z,78.16
2022-11-24T09:17:34.983Z,79.47
2022-11-24T09:19:48.283Z,79.81
2022-11-24T09:22:01.571Z,79.69
2022-11-24T09:24:17.789Z,79.41
2022-11-24T09:26:32.769Z,79.26
2022-11-24T09:28:46.906Z,78.92
2022-11-24T09:31:03.360Z,78.57
2022-11-24T09:33:16.739Z,78.26
2022-11-24T09:35:29.965Z,77.94
2022-11-24T09:37:46.136Z,77.95
2022-11-24T09:39:59.691Z,77.74
2022-11-24T09:42:19.187Z,77.75
2022-11-24T09:45:03.941Z,78.11
2022-11-24T09:47:26.164Z,78.45
2022-11-24T09:49:50.952Z,78.55
2022-11-24T09:52:11.884Z,78.63
2022-11-24T09:54:28.215Z,78.69
2022-11-24T09:56:45.427Z,78.91
2022-11-24T09:59:03.890Z,79.03
2022-11-24T10:01:22.069Z,79.14
2022-11-24T10:03:39.895Z,79.44
2022-11-24T10:05:54.904Z,79.46
2022-11-24T10:08:23.150Z,79.47
2022-11-24T10:10:45.838Z,79.25
2022-11-24T10:13:02.006Z,78.89
2022-11-24T10:15:29.839Z,78.54
2022-11-24T10:18:17.024Z,78.36
2022-11-24T10:20:40.890Z,78.36
2022-11-24T10:23:02.452Z,78.40
2022-11-24T10:25:22.391Z,78.42
2022-11-24T10:27:42.962Z,78.56
2022-11-24T10:29:58.745Z,78.71
2022-11-24T10:32:18.243Z,78.66
2022-11-24T10:34:36.385Z,78.88
2022-11-24T10:36:57.871Z,79.29
2022-11-24T10:39:21.202Z,79.32
2022-11-24T10:41:46.410Z,79.30
2022-11-24T10:44:02.020Z,79.49
2022-11-24T10:46:18.885Z,79.53
2022-11-24T10:48:40.903Z,79.59
2022-11-24T10:50:57.139Z,79.43
2022-11-24T10:53:22.333Z,79.77
2022-11-24T10:56:11.256Z,79.95
2022-11-24T10:58:32.940Z,80.26
2022-11-24T11:00:50.684Z,80.35
2022-11-24T11:05:51.547Z,80.07
2022-11-24T11:08:30.827Z,80.14
2022-11-24T11:10:44.616Z,80.02
2022-11-24T11:12:57.954Z,80.13
2022-11-24T11:15:32.250Z,80.38
2022-11-24T11:17:47.074Z,80.66
2022-11-24T11:20:05.110Z,80.70
2022-11-24T11:22:25.302Z,80.50
2022-11-24T11:24:39.651Z,80.32
2022-11-24T11:27:02.514Z,79.76
2022-11-24T11:34:41.963Z,78.79
2022-11-24T11:36:57.350Z,78.64
2022-11-24T11:39:18.955Z,78.52
2022-11-24T11:41:36.664Z,78.18
2022-11-24T11:43:53.903Z,77.95
2022-11-24T11:46:15.100Z,78.04
2022-11-24T11:48:42.800Z,78.16
2022-11-24T11:53:46.481Z,78.28
2022-11-24T11:56:13.056Z,78.41
2022-11-24T11:58:56.877Z,78.29
2022-11-24T12:01:27.472Z,78.63
2022-11-24T12:03:54.064Z,78.87
2022-11-24T12:06:22.665Z,79.32
2022-11-24T12:09:18.075Z,79.67
2022-11-24T12:11:26.100Z,79.77
2022-11-24T12:13:55.458Z,80.03
2022-11-24T12:16:19.434Z,80.13
2022-11-24T12:21:26.408Z,79.74
2022-11-24T12:23:55.270Z,79.62
2022-11-24T12:26:15.870Z,79.49
2022-11-24T12:28:44.299Z,79.13
2022-11-24T12:31:08.092Z,78.98
2022-11-24T12:33:39.618Z,78.80
2022-11-24T12:35:57.491Z,78.50
2022-11-24T12:38:24.681Z,78.22
2022-11-24T12:40:48.581Z,77.95
2022-11-24T12:43:09.509Z,77.78
2022-11-24T12:45:26.431Z,77.76
2022-11-24T12:47:51.748Z,77.79
2022-11-24T12:50:12.737Z,77.86
2022-11-24T12:52:29.640Z,77.95
2022-11-24T12:54:45.172Z,78.15
2022-11-24T12:57:05.659Z,77.98
2022-11-24T12:59:31.241Z,77.85
2022-11-24T13:01:51.105Z,77.72
2022-11-24T13:04:24.338Z,77.98
2022-11-24T13:06:49.325Z,78.12
2022-11-24T13:09:10.364Z,78.49
2022-11-24T13:11:49.417Z,78.54
2022-11-24T13:14:09.225Z,78.62
2022-11-24T13:16:59.086Z,78.58
2022-11-24T13:19:02.842Z,78.64
2022-11-24T13:21:51.450Z,78.65
2022-11-24T13:24:06.536Z,78.84
2022-11-24T13:26:37.523Z,78.89
2022-11-24T13:29:23.821Z,78.93
2022-11-24T13:31:38.119Z,78.82
2022-11-24T13:33:51.452Z,78.78
2022-11-24T13:36:45.259Z,78.47
2022-11-24T13:39:00.392Z,78.31
2022-11-24T13:41:35.942Z,78.34
2022-11-24T13:44:29.716Z,78.34
2022-11-24T13:47:05.731Z,78.22
2022-11-24T13:49:27.390Z,78.36
2022-11-24T13:51:40.719Z,78.36
2022-11-24T13:53:56.731Z,78.36
2022-11-24T13:56:23.768Z,78.52
2022-11-24T13:58:42.990Z,78.78
2022-11-24T14:01:10.719Z,78.90
2022-11-24T14:03:30.232Z,78.77
2022-11-24T14:05:50.675Z,78.82
2022-11-24T14:08:05.340Z,78.82
2022-11-24T14:10:23.983Z,79.03
2022-11-24T14:12:37.302Z,79.18
2022-11-24T14:14:52.441Z,79.25
2022-11-24T14:17:23.891Z,79.14
2022-11-24T14:19:37.181Z,79.12
2022-11-24T14:21:51.287Z,79.08
2022-11-24T14:24:12.339Z,79.13
2022-11-24T14:26:28.197Z,79.08
2022-11-24T14:28:41.445Z,79.26
2022-11-24T14:30:55.043Z,79.40
2022-11-24T14:33:14.592Z,79.37
2022-11-24T14:35:30.932Z,79.41
2022-11-24T14:37:44.663Z,79.42
2022-11-24T14:39:58.254Z,79.46
2022-11-24T14:42:19.883Z,79.65
2022-11-24T14:44:35.624Z,79.65
2022-11-24T14:46:49.179Z,79.54
2022-11-24T14:49:02.505Z,79.45
2022-11-24T14:51:24.236Z,79.43
2022-11-24T14:53:38.371Z,79.51
2022-11-24T14:56:09.759Z,79.47
2022-11-24T14:58:42.015Z,79.46
2022-11-24T15:01:21.720Z,79.52
2022-11-24T15:03:35.577Z,79.69
2022-11-24T15:06:00.557Z,79.64
2022-11-24T15:08:19.663Z,79.76
2022-11-24T15:10:38.099Z,79.60
2022-11-24T15:12:58.266Z,79.60
2022-11-24T15:15:21.475Z,79.60
2022-11-24T15:17:35.383Z,79.68
2022-11-24T15:19:53.522Z,79.98
2022-11-24T15:22:27.105Z,80.03
2022-11-24T15:24:52.050Z,80.36
2022-11-24T15:27:08.362Z,80.66
2022-11-24T15:29:21.729Z,80.47
2022-11-24T15:31:35.554Z,80.24
2022-11-24T15:33:49.041Z,80.22
2022-11-24T15:36:03.087Z,80.34
2022-11-24T15:38:16.495Z,80.57
2022-11-24T15:40:29.792Z,80.56
2022-11-24T15:42:43.405Z,80.75
2022-11-24T15:44:56.706Z,81.17
2022-11-24T15:47:09.972Z,81.66
2022-11-24T15:49:23.351Z,82.05
2022-11-24T15:51:37.463Z,82.39
2022-11-24T15:53:58.716Z,82.60
2022-11-24T15:56:18.532Z,82.15
2022-11-24T15:58:32.146Z,81.88
2022-11-24T16:00:45.674Z,81.73
2022-11-24T16:03:02.064Z,81.45
2022-11-24T16:05:26.441Z,81.68
2022-11-24T16:07:39.706Z,81.75
2022-11-24T16:09:53.024Z,81.76
2022-11-24T16:12:06.362Z,81.55
2022-11-24T16:14:19.704Z,81.43
2022-11-24T16:16:33.114Z,81.29
2022-11-24T16:18:46.642Z,81.47
2022-11-24T16:21:00.014Z,81.63
2022-11-24T16:23:13.441Z,81.59
2022-11-24T16:25:26.837Z,81.72
2022-11-24T16:27:40.343Z,81.81
2022-11-24T16:29:53.607Z,81.99
2022-11-24T16:32:07.273Z,82.33
2022-11-24T16:34:21.265Z,82.67
2022-11-24T16:36:34.650Z,83.05
2022-11-24T16:38:48.000Z,83.11
2022-11-24T16:41:01.789Z,83.12
2022-11-24T16:43:15.127Z,82.97
2022-11-24T16:45:28.420Z,82.76
2022-11-24T16:47:45.431Z,82.81
2022-11-24T16:49:58.813Z,82.92
2022-11-24T16:52:12.175Z,82.62
2022-11-24T16:54:25.701Z,82.47
2022-11-24T16:56:39.249Z,82.68
2022-11-24T16:58:52.589Z,82.54
2022-11-24T17:01:11.595Z,82.63
2022-11-24T17:03:25.369Z,82.42
2022-11-24T17:05:38.847Z,82.18
2022-11-24T17:07:52.613Z,81.76
2022-11-24T17:10:06.398Z,81.68
2022-11-24T17:12:19.934Z,81.23
2022-11-24T17:14:34.081Z,80.74
2022-11-24T17:16:47.729Z,80.65
2022-11-24T17:19:01.729Z,80.46
2022-11-24T17:21:18.675Z,80.41
2022-11-24T17:23:32.654Z,80.50
2022-11-24T17:25:46.042Z,80.70
2022-11-24T17:28:02.363Z,80.59
2022-11-24T17:30:18.453Z,80.72
2022-11-24T17:32:31.974Z,80.76
2022-11-24T17:34:45.456Z,81.02
2022-11-24T17:36:59.168Z,81.23
2022-11-24T17:39:13.012Z,81.29
2022-11-24T17:41:26.585Z,81.45
2022-11-24T17:43:40.102Z,81.56
2022-11-24T17:45:59.929Z,81.54
2022-11-24T17:48:13.812Z,81.50
2022-11-24T17:50:27.479Z,81.37
2022-11-24T17:52:41.143Z,81.41
2022-11-24T17:54:54.751Z,81.46
2022-11-24T17:57:08.405Z,81.36
2022-11-24T17:59:22.080Z,81.45
2022-11-24T18:01:36.126Z,81.45
2022-11-24T18:03:53.498Z,81.62
2022-11-24T18:06:14.053Z,81.45
2022-11-24T18:08:27.675Z,81.48
2022-11-24T18:10:41.164Z,81.40
2022-11-24T18:12:54.636Z,81.44
2022-11-24T18:15:08.224Z,81.53
2022-11-24T18:17:21.519Z,81.51
2022-11-24T18:19:34.832Z,81.59
2022-11-24T18:21:48.284Z,81.60
2022-11-24T18:24:01.589Z,81.47
2022-11-24T18:26:18.024Z,81.72
2022-11-24T18:28:31.453Z,81.55
2022-11-24T18:30:44.801Z,81.48
2022-11-24T18:32:58.093Z,81.50
2022-11-24T18:35:12.355Z,81.31
2022-11-24T18:37:25.837Z,81.18
2022-11-24T18:39:43.184Z,81.14
2022-11-24T18:41:56.714Z,81.08
2022-11-24T18:44:10.791Z,80.90
2022-11-24T18:46:24.804Z,80.59
2022-11-24T18:48:38.352Z,80.41
2022-11-24T18:50:55.888Z,80.75
2022-11-24T18:53:09.342Z,80.92
2022-11-24T18:55:22.893Z,80.82
2022-11-24T18:57:36.390Z,80.88
2022-11-24T18:59:49.870Z,81.09
2022-11-24T19:02:03.492Z,81.18
2022-11-24T19:04:17.678Z,81.22
2022-11-24T19:06:34.178Z,80.93
2022-11-24T19:08:50.220Z,80.88
2022-11-24T19:11:04.060Z,80.76
2022-11-24T19:13:19.931Z,80.35
2022-11-24T19:15:35.318Z,80.21
2022-11-24T19:17:48.907Z,80.07
2022-11-24T19:20:02.353Z,80.33
2022-11-24T19:22:17.302Z,80.07
2022-11-24T19:24:31.458Z,79.75
2022-11-24T19:26:45.370Z,79.85
2022-11-24T19:28:58.773Z,79.97
2022-11-24T19:31:15.674Z,80.09
2022-11-24T19:33:29.087Z,80.60
2022-11-24T19:35:42.596Z,81.04
2022-11-24T19:37:56.957Z,81.09
2022-11-24T19:40:11.475Z,81.11
2022-11-24T19:42:24.921Z,81.26
2022-11-24T19:44:38.368Z,81.37
2022-11-24T19:46:51.794Z,81.61
2022-11-24T19:49:06.116Z,81.94
2022-11-24T19:51:21.068Z,82.01
2022-11-24T19:53:34.969Z,82.31
2022-11-24T19:55:48.243Z,82.61
2022-11-24T19:58:01.847Z,82.37
2022-11-24T20:00:18.523Z,82.37
2022-11-24T20:02:32.849Z,82.31
2022-11-24T20:04:46.363Z,82.17
2022-11-24T20:06:59.952Z,82.36
2022-11-24T20:09:15.344Z,82.40
2022-11-24T20:11:28.958Z,82.61
2022-11-24T20:13:43.579Z,82.54
2022-11-24T20:15:56.992Z,82.33
2022-11-24T20:18:10.589Z,82.22
2022-11-24T20:20:23.980Z,82.31
2022-11-24T20:22:37.425Z,82.18
2022-11-24T20:24:50.872Z,82.07
2022-11-24T20:27:04.739Z,81.78
2022-11-24T20:29:19.193Z,81.57
2022-11-24T20:31:34.825Z,81.71
2022-11-24T20:33:49.273Z,81.61
2022-11-24T20:36:07.316Z,81.57
2022-11-24T20:38:20.636Z,81.83
2022-11-24T20:40:34.235Z,81.90
2022-11-24T20:42:47.601Z,81.99
2022-11-24T20:45:02.134Z,81.75
2022-11-24T20:47:15.636Z,81.41
2022-11-24T20:49:29.688Z,81.15
2022-11-24T20:51:45.348Z,80.92
2022-11-24T20:54:01.398Z,80.72
2022-11-24T20:56:18.145Z,80.64
2022-11-24T20:58:31.623Z,80.36
2022-11-24T21:00:45.282Z,80.78
2022-11-24T21:02:59.702Z,80.71
2022-11-24T21:05:13.783Z,80.42
2022-11-24T21:07:27.191Z,80.08
2022-11-24T21:09:40.822Z,80.07
2022-11-24T21:11:54.464Z,79.79
2022-11-24T21:14:08.357Z,79.58
2022-11-24T21:16:23.706Z,79.66
2022-11-24T21:18:37.054Z,79.65
2022-11-24T21:20:50.531Z,79.25
2022-11-24T21:23:04.932Z,79.15
2022-11-24T21:25:18.488Z,79.38
2022-11-24T21:27:31.952Z,79.37
2022-11-24T21:29:45.766Z,79.23
2022-11-24T21:31:59.293Z,79.53
2022-11-24T21:34:17.085Z,79.58
2022-11-24T21:36:31.078Z,79.34
2022-11-24T21:38:45.262Z,79.27
2022-11-24T21:41:02.076Z,78.59
2022-11-24T21:43:15.340Z,79.11
2022-11-24T21:45:30.423Z,79.08
2022-11-24T21:47:43.833Z,79.38
2022-11-24T21:49:57.021Z,79.28
2022-11-24T21:52:10.488Z,78.98
2022-11-24T21:54:23.805Z,78.56
2022-11-24T21:56:37.160Z,78.04
2022-11-24T21:58:54.330Z,78.04
2022-11-24T22:01:11.930Z,77.94
2022-11-24T22:03:26.500Z,77.19
2022-11-24T22:05:39.895Z,76.89
2022-11-24T22:07:53.379Z,76.88
2022-11-24T22:10:06.975Z,77.08
2022-11-24T22:12:20.346Z,76.91
2022-11-24T22:14:37.550Z,76.45
2022-11-24T22:16:53.487Z,76.76
2022-11-24T22:19:06.821Z,76.68
2022-11-24T22:21:21.123Z,76.67
2022-11-24T22:23:34.957Z,77.21
2022-11-24T22:25:48.277Z,77.60
2022-11-24T22:28:01.554Z,77.93
2022-11-24T22:30:16.296Z,77.86
2022-11-24T22:32:29.510Z,77.39
2022-11-24T22:34:42.821Z,77.45
2022-11-24T22:36:56.155Z,77.12
2022-11-24T22:39:10.128Z,77.13
2022-11-24T22:41:23.812Z,77.15
2022-11-24T22:43:39.412Z,77.00
2022-11-24T22:45:52.651Z,77.00
2022-11-24T22:48:05.883Z,77.02
2022-11-24T22:50:21.321Z,77.02
2022-11-24T22:52:34.963Z,77.19
2022-11-24T22:54:48.206Z,76.87
2022-11-24T22:57:01.727Z,76.67
2022-11-24T22:59:14.962Z,76.76
2022-11-24T23:01:29.196Z,76.32
2022-11-24T23:03:43.169Z,75.73
2022-11-24T23:05:56.583Z,75.74
2022-11-24T23:08:10.173Z,75.60
2022-11-24T23:10:23.548Z,75.80
2022-11-24T23:12:36.969Z,75.58
2022-11-24T23:14:50.254Z,75.20
2022-11-24T23:17:03.663Z,74.97
2022-11-24T23:19:17.193Z,74.58
2022-11-24T23:21:32.375Z,74.80
2022-11-24T23:23:45.684Z,74.62
2022-11-24T23:25:58.862Z,74.55
2022-11-24T23:28:12.342Z,74.99
2022-11-24T23:30:25.785Z,75.06
2022-11-24T23:32:39.101Z,75.01
2022-11-24T23:34:52.578Z,74.88
2022-11-24T23:37:10.511Z,74.72
2022-11-24T23:39:24.060Z,74.73
2022-11-24T23:41:40.662Z,74.80
2022-11-24T23:43:54.371Z,75.19
2022-11-24T23:46:12.984Z,75.24
2022-11-24T23:48:26.519Z,75.34
2022-11-24T23:50:41.311Z,75.44
2022-11-24T23:52:54.774Z,75.41
2022-11-24T23:55:08.680Z,75.58
2022-11-24T23:57:22.314Z,75.48
2022-11-24T23:59:35.704Z,75.59
